createdAt,value
2023-01-13T00:00:31.937Z,36.97
2023-01-13T00:02:37.000Z,37.12
2023-01-13T00:04:41.777Z,37
2023-01-13T00:06:46.410Z,37.27
2023-01-13T00:08:50.938Z,37.36
2023-01-13T00:10:55.519Z,37.39
2023-01-13T00:13:00.005Z,37.34
2023-01-13T00:15:04.488Z,37.35
2023-01-13T00:17:08.999Z,36.99
2023-01-13T00:19:13.483Z,37.58
2023-01-13T00:21:18.151Z,37.69
2023-01-13T00:23:22.611Z,37.74
2023-01-13T00:25:27.191Z,37.74
2023-01-13T00:27:31.735Z,37.83
2023-01-13T00:29:36.241Z,37.83
2023-01-13T00:31:40.844Z,37.99
2023-01-13T00:33:45.363Z,37.81
2023-01-13T00:35:49.836Z,37.94
2023-01-13T00:37:54.398Z,37.92
2023-01-13T00:39:59.028Z,38.13
2023-01-13T00:42:03.794Z,37.99
2023-01-13T00:44:08.315Z,38.1
2023-01-13T00:46:13.053Z,37.76
2023-01-13T00:48:17.563Z,38.04
2023-01-13T00:50:22.045Z,38.02
2023-01-13T00:52:26.529Z,38.01
2023-01-13T00:54:30.994Z,37.94
2023-01-13T00:56:42.658Z,38.09
2023-01-13T00:58:47.172Z,37.93
2023-01-13T01:00:51.892Z,38.2
2023-01-13T01:02:57.118Z,38.16
2023-01-13T01:05:01.595Z,38.23
2023-01-13T01:07:06.048Z,38.36
2023-01-13T01:09:10.519Z,38.49
2023-01-13T01:11:15.111Z,38.65
2023-01-13T01:13:19.661Z,38.76
2023-01-13T01:15:24.260Z,38.74
2023-01-13T01:17:28.751Z,38.91
2023-01-13T01:19:33.491Z,38.84
2023-01-13T01:21:37.997Z,38.94
2023-01-13T01:23:42.466Z,39.02
2023-01-13T01:25:46.920Z,39.08
2023-01-13T01:27:51.424Z,39.18
2023-01-13T01:29:55.887Z,39.13
2023-01-13T01:32:00.412Z,39.18
2023-01-13T01:34:04.987Z,39.28
2023-01-13T01:36:09.487Z,39.25
2023-01-13T01:38:14.040Z,39.49
2023-01-13T01:40:18.509Z,39.66
2023-01-13T01:42:22.987Z,39.66
2023-01-13T01:44:27.434Z,39.63
2023-01-13T01:46:32.163Z,39.42
2023-01-13T01:48:36.739Z,39.41
2023-01-13T01:50:41.229Z,39.94
2023-01-13T01:52:45.686Z,39.97
2023-01-13T01:54:50.147Z,39.82
2023-01-13T01:56:54.732Z,39.83
2023-01-13T01:58:59.379Z,39.74
2023-01-13T02:01:04.509Z,39.74
2023-01-13T02:03:09.046Z,39.84
2023-01-13T02:05:13.542Z,39.88
2023-01-13T02:07:18.109Z,39.73
2023-01-13T02:09:22.657Z,39.79
2023-01-13T02:11:27.121Z,39.87
2023-01-13T02:13:31.643Z,39.76
2023-01-13T02:15:36.465Z,39.84
2023-01-13T02:17:40.953Z,39.8
2023-01-13T02:19:45.424Z,39.88
2023-01-13T02:21:49.909Z,39.91
2023-01-13T02:23:54.345Z,39.88
2023-01-13T02:25:59.017Z,39.99
2023-01-13T02:28:04.027Z,39.82
2023-01-13T02:30:08.681Z,40
2023-01-13T02:32:13.150Z,39.75
2023-01-13T02:34:17.643Z,39.92
2023-01-13T02:36:22.315Z,39.89
2023-01-13T02:38:26.812Z,40.04
2023-01-13T02:40:31.360Z,39.92
2023-01-13T02:42:35.865Z,40.04
2023-01-13T02:44:40.394Z,40.27
2023-01-13T02:46:44.854Z,40.36
2023-01-13T02:48:49.340Z,40.26
2023-01-13T02:50:53.824Z,40.07
2023-01-13T02:54:47.818Z,40.41
2023-01-13T02:56:52.267Z,40.52
2023-01-13T02:58:56.769Z,40.65
2023-01-13T03:01:01.721Z,40.54
2023-01-13T03:03:06.191Z,40.47
2023-01-13T03:05:10.791Z,40.6
2023-01-13T03:07:15.103Z,40.66
2023-01-13T03:09:19.500Z,40.88
2023-01-13T03:11:23.840Z,40.78
2023-01-13T03:13:28.228Z,40.96
2023-01-13T03:15:32.566Z,40.96
2023-01-13T03:17:36.906Z,41.04
2023-01-13T03:19:41.292Z,41.09
2023-01-13T03:21:45.623Z,40.83
2023-01-13T03:23:49.988Z,41.22
2023-01-13T03:25:54.322Z,41.32
2023-01-13T03:27:58.760Z,41.41
2023-01-13T03:30:03.269Z,41.35
2023-01-13T03:32:07.669Z,41.39
2023-01-13T03:34:12.012Z,41.47
2023-01-13T03:36:16.376Z,41.17
2023-01-13T03:38:20.692Z,41.31
2023-01-13T03:40:25.041Z,41.38
2023-01-13T03:42:29.403Z,41.47
2023-01-13T03:44:34.909Z,41.36
2023-01-13T03:46:39.258Z,41.47
2023-01-13T03:48:43.640Z,41.4
2023-01-13T03:50:48.018Z,41.43
2023-01-13T03:52:52.633Z,41.46
2023-01-13T03:54:56.963Z,41.29
2023-01-13T03:57:01.322Z,41.24
2023-01-13T03:59:05.705Z,41.15
2023-01-13T04:01:10.527Z,41.4
2023-01-13T04:03:14.920Z,41.35
2023-01-13T04:05:19.234Z,41.37
2023-01-13T04:07:23.586Z,41.35
2023-01-13T04:09:27.949Z,41.35
2023-01-13T04:11:32.307Z,41.45
2023-01-13T04:13:36.720Z,41.39
2023-01-13T04:15:41.220Z,41.45
2023-01-13T04:17:45.636Z,41.55
2023-01-13T04:19:49.997Z,41.47
2023-01-13T04:21:54.359Z,41.48
2023-01-13T04:23:58.703Z,41.36
2023-01-13T04:26:03.062Z,41.56
2023-01-13T04:28:07.456Z,41.56
2023-01-13T04:30:11.823Z,41.46
2023-01-13T04:32:16.150Z,41.55
2023-01-13T04:34:20.502Z,41.65
2023-01-13T04:36:24.870Z,41.5
2023-01-13T04:38:29.450Z,41.63
2023-01-13T04:40:33.828Z,41.6
2023-01-13T04:42:38.271Z,41.62
2023-01-13T04:44:42.677Z,41.55
2023-01-13T04:46:46.988Z,41.55
2023-01-13T04:48:51.300Z,41.64
2023-01-13T04:50:55.626Z,41.7
2023-01-13T04:52:59.951Z,41.68
2023-01-13T04:55:04.351Z,41.63
2023-01-13T04:57:08.766Z,41.67
2023-01-13T04:59:13.080Z,41.61
2023-01-13T05:01:17.855Z,41.59
2023-01-13T05:03:22.244Z,41.7
2023-01-13T05:05:26.553Z,41.64
2023-01-13T05:07:30.921Z,41.55
2023-01-13T05:09:35.268Z,41.59
2023-01-13T05:11:39.593Z,41.61
2023-01-13T05:13:44.108Z,41.68
2023-01-13T05:15:48.756Z,41.69
2023-01-13T05:17:53.196Z,41.56
2023-01-13T05:19:57.522Z,41.62
2023-01-13T05:22:01.883Z,41.61
2023-01-13T05:24:06.243Z,41.64
2023-01-13T05:26:10.597Z,41.66
2023-01-13T05:28:14.940Z,41.58
2023-01-13T05:30:19.406Z,41.68
2023-01-13T05:32:23.737Z,41.49
2023-01-13T05:34:28.075Z,41.52
2023-01-13T05:36:32.555Z,41.57
2023-01-13T05:38:37.007Z,41.58
2023-01-13T05:40:41.347Z,41.75
2023-01-13T05:42:45.755Z,41.77
2023-01-13T05:44:50.100Z,41.85
2023-01-13T05:46:54.794Z,41.8
2023-01-13T05:48:59.146Z,41.78
2023-01-13T05:51:03.592Z,41.75
2023-01-13T05:53:08.029Z,41.72
2023-01-13T05:55:12.440Z,41.84
2023-01-13T05:57:16.816Z,41.75
2023-01-13T05:59:21.177Z,41.66
2023-01-13T06:01:25.739Z,41.66
2023-01-13T06:03:30.164Z,41.68
2023-01-13T06:05:34.575Z,41.62
2023-01-13T06:07:38.905Z,41.6
2023-01-13T06:09:43.292Z,41.8
2023-01-13T06:11:47.688Z,41.57
2023-01-13T06:13:52.107Z,41.73
2023-01-13T06:15:56.737Z,41.84
2023-01-13T06:18:01.119Z,41.8
2023-01-13T06:20:05.558Z,41.63
2023-01-13T06:22:09.972Z,41.15
2023-01-13T06:24:14.446Z,40.51
2023-01-13T06:26:18.797Z,40.66
2023-01-13T06:28:23.162Z,41.13
2023-01-13T06:30:27.534Z,41.07
2023-01-13T06:32:31.847Z,41.2
2023-01-13T06:34:36.192Z,41.03
2023-01-13T06:36:40.625Z,40.96
2023-01-13T06:38:45.137Z,39.66
2023-01-13T06:40:49.504Z,40.6
2023-01-13T06:42:53.828Z,40.53
2023-01-13T06:44:58.147Z,40.56
2023-01-13T06:47:02.703Z,40.32
2023-01-13T06:49:07.062Z,40.07
2023-01-13T06:51:11.785Z,40.13
2023-01-13T06:53:16.274Z,40.24
2023-01-13T06:55:20.610Z,40.07
2023-01-13T06:57:24.980Z,39.89
2023-01-13T06:59:29.329Z,39.93
2023-01-13T07:01:34.193Z,39.79
2023-01-13T07:03:38.615Z,39.41
2023-01-13T07:05:43.058Z,39.59
2023-01-13T07:07:47.414Z,39.46
2023-01-13T07:09:51.770Z,38.96
2023-01-13T07:11:56.157Z,39
2023-01-13T07:14:00.526Z,39.55
2023-01-13T07:16:05.363Z,39.43
2023-01-13T07:18:09.835Z,39.49
2023-01-13T07:20:14.450Z,39.53
2023-01-13T07:22:18.925Z,39.66
2023-01-13T07:24:23.371Z,39.54
2023-01-13T07:26:27.966Z,39.5
2023-01-13T07:28:32.476Z,39.08
2023-01-13T07:30:36.869Z,38.8
2023-01-13T07:32:41.395Z,39.13
2023-01-13T07:34:45.743Z,39
2023-01-13T07:36:50.288Z,39.14
2023-01-13T07:38:56.934Z,38.92
2023-01-13T07:41:01.264Z,38.98
2023-01-13T07:43:05.646Z,38.97
2023-01-13T07:45:13.395Z,38.8
2023-01-13T07:47:17.956Z,38.54
2023-01-13T07:49:22.333Z,38.61
2023-01-13T07:51:26.679Z,38.86
2023-01-13T07:53:31.055Z,38.94
2023-01-13T07:55:35.467Z,38.95
2023-01-13T07:57:39.812Z,38.83
2023-01-13T07:59:44.252Z,38.86
2023-01-13T08:01:49.318Z,38.78
2023-01-13T08:03:53.752Z,38.72
2023-01-13T08:05:58.214Z,38.75
2023-01-13T08:08:02.665Z,38.76
2023-01-13T08:10:07.143Z,38.81
2023-01-13T08:12:11.588Z,38.79
2023-01-13T08:14:16.008Z,38.72
2023-01-13T08:16:20.399Z,38.74
2023-01-13T08:18:24.850Z,38.73
2023-01-13T08:20:29.272Z,38.62
2023-01-13T08:22:33.612Z,38.65
2023-01-13T08:24:38.037Z,38.58
2023-01-13T08:26:42.420Z,38.62
2023-01-13T08:28:46.928Z,38.64
2023-01-13T08:30:51.419Z,38.4
2023-01-13T08:32:55.912Z,38.11
2023-01-13T08:35:00.275Z,38.04
2023-01-13T08:37:04.635Z,38.1
2023-01-13T08:39:09.057Z,38.02
2023-01-13T08:41:13.435Z,37.9
2023-01-13T08:43:17.846Z,37.94
2023-01-13T08:45:22.264Z,37.72
2023-01-13T08:47:26.670Z,37.82
2023-01-13T08:49:31.135Z,37.76
2023-01-13T08:51:35.535Z,37.66
2023-01-13T08:53:39.868Z,37.95
2023-01-13T08:55:44.230Z,38.02
2023-01-13T08:57:48.625Z,37.91
2023-01-13T08:59:53.027Z,38.18
2023-01-13T09:01:57.968Z,38.31
2023-01-13T09:04:02.779Z,38.36
2023-01-13T09:06:07.190Z,38.65
2023-01-13T09:08:11.590Z,38.68
2023-01-13T09:10:15.929Z,38.58
2023-01-13T09:12:20.275Z,38.6
2023-01-13T09:14:24.640Z,38.76
2023-01-13T09:16:28.998Z,38.7
2023-01-13T09:18:33.426Z,38.72
2023-01-13T09:20:37.895Z,38.78
2023-01-13T09:22:42.299Z,38.75
2023-01-13T09:24:46.686Z,38.61
2023-01-13T09:26:51.172Z,38.69
2023-01-13T09:28:55.596Z,38.45
2023-01-13T09:31:00.137Z,38.5
2023-01-13T09:33:04.548Z,38.55
2023-01-13T09:35:09.034Z,38.5
2023-01-13T09:37:13.400Z,38.48
2023-01-13T09:39:17.849Z,38.42
2023-01-13T09:41:22.236Z,38.43
2023-01-13T09:43:26.593Z,38.64
2023-01-13T09:45:30.927Z,38.7
2023-01-13T09:47:35.281Z,38.51
2023-01-13T09:49:39.757Z,38.58
2023-01-13T09:51:44.445Z,38.31
2023-01-13T09:53:48.794Z,38.33
2023-01-13T09:55:53.222Z,38.38
2023-01-13T09:57:57.564Z,38.3
2023-01-13T10:00:01.991Z,38.07
2023-01-13T10:02:06.414Z,38.05
2023-01-13T10:04:11.322Z,37.81
2023-01-13T10:06:15.718Z,37.96
2023-01-13T10:08:20.119Z,37.67
2023-01-13T10:10:24.516Z,37.72
2023-01-13T10:12:28.893Z,37.66
2023-01-13T10:14:33.228Z,37.9
2023-01-13T10:16:37.672Z,37.87
2023-01-13T10:18:42.019Z,37.69
2023-01-13T10:20:46.437Z,37.82
2023-01-13T10:22:50.907Z,37.7
2023-01-13T10:24:55.244Z,37.47
2023-01-13T10:26:59.590Z,37.49
2023-01-13T10:29:04.197Z,37.53
2023-01-13T10:31:08.710Z,37.64
2023-01-13T10:33:13.303Z,37.66
2023-01-13T10:35:17.783Z,37.51
2023-01-13T10:37:22.209Z,37.52
2023-01-13T10:39:26.627Z,37.67
2023-01-13T10:41:31.077Z,37.56
2023-01-13T10:43:35.562Z,37.55
2023-01-13T10:45:39.917Z,37.62
2023-01-13T10:47:44.332Z,37.25
2023-01-13T10:49:48.681Z,37.68
2023-01-13T10:51:53.210Z,37.54
2023-01-13T10:53:57.640Z,37.4
2023-01-13T10:56:02.038Z,37.34
2023-01-13T10:58:06.414Z,37.35
2023-01-13T11:00:10.780Z,37.32
2023-01-13T11:02:28.137Z,37.12
2023-01-13T11:04:32.841Z,37.06
2023-01-13T11:06:37.209Z,36.78
2023-01-13T11:08:41.581Z,36.84
2023-01-13T11:10:45.920Z,36.9
2023-01-13T11:12:52.737Z,36.77
2023-01-13T11:14:57.089Z,36.83
2023-01-13T11:17:01.525Z,36.9
2023-01-13T11:19:05.886Z,36.84
2023-01-13T11:21:10.247Z,36.8
2023-01-13T11:23:14.570Z,36.65
2023-01-13T11:25:18.926Z,36.74
2023-01-13T11:27:23.307Z,36.78
2023-01-13T11:29:27.651Z,36.68
2023-01-13T11:31:32.415Z,36.63
2023-01-13T11:33:36.780Z,36.5
2023-01-13T11:35:41.225Z,36.73
2023-01-13T11:37:45.665Z,36.52
2023-01-13T11:39:50.105Z,36.8
2023-01-13T11:41:54.567Z,37
2023-01-13T11:43:58.958Z,36.87
2023-01-13T11:46:03.325Z,36.46
2023-01-13T11:48:07.774Z,36.53
2023-01-13T11:50:12.085Z,36.67
2023-01-13T11:52:16.506Z,36.39
2023-01-13T11:54:20.857Z,36.33
2023-01-13T11:56:25.395Z,36.52
2023-01-13T11:58:38.700Z,36.62
2023-01-13T12:00:49.771Z,36.45
2023-01-13T12:02:54.408Z,36.45
2023-01-13T12:04:58.916Z,36.63
2023-01-13T12:07:03.261Z,36.75
2023-01-13T12:09:07.703Z,36.96
2023-01-13T12:11:12.077Z,36.95
2023-01-13T12:13:16.537Z,36.9
2023-01-13T12:15:20.959Z,36.84
2023-01-13T12:17:25.438Z,36.77
2023-01-13T12:19:29.843Z,36.72
2023-01-13T12:21:34.308Z,36.78
2023-01-13T12:23:38.771Z,36.7
2023-01-13T12:25:43.242Z,37.01
2023-01-13T12:27:49.549Z,37.08
2023-01-13T12:29:53.965Z,37.19
2023-01-13T12:31:58.514Z,37.29
2023-01-13T12:34:02.923Z,37.43
2023-01-13T12:36:07.266Z,37.5
2023-01-13T12:38:11.799Z,37.58
2023-01-13T12:40:16.144Z,37.5
2023-01-13T12:42:20.580Z,37.67
2023-01-13T12:44:24.941Z,37.76
2023-01-13T12:46:29.353Z,37.62
2023-01-13T12:48:33.697Z,37.6
2023-01-13T12:50:38.135Z,37.59
2023-01-13T12:52:42.599Z,37.64
2023-01-13T12:54:47.143Z,37.53
2023-01-13T12:56:51.478Z,37.8
2023-01-13T12:58:55.858Z,37.92
2023-01-13T13:01:00.717Z,37.53
2023-01-13T13:03:05.385Z,37.46
2023-01-13T13:05:09.780Z,37.45
2023-01-13T13:07:14.128Z,37.46
2023-01-13T13:09:18.464Z,37.38
2023-01-13T13:11:22.927Z,37.42
2023-01-13T13:13:27.276Z,37.43
2023-01-13T13:15:31.573Z,37.5
2023-01-13T13:17:35.878Z,37.42
2023-01-13T13:19:40.186Z,37.48
2023-01-13T13:21:44.477Z,37.49
2023-01-13T13:23:48.844Z,37.36
2023-01-13T13:25:53.272Z,37.19
2023-01-13T13:27:57.643Z,37.13
2023-01-13T13:30:02.158Z,37.13
2023-01-13T13:32:06.491Z,37.2
2023-01-13T13:34:10.855Z,37.21
2023-01-13T13:36:15.323Z,37.14
2023-01-13T13:38:19.665Z,37.2
2023-01-13T13:40:24.031Z,37.16
2023-01-13T13:42:28.431Z,36.98
2023-01-13T13:44:32.828Z,37.07
2023-01-13T13:46:37.490Z,37.01
2023-01-13T13:48:41.858Z,37.17
2023-01-13T13:50:46.241Z,37.08
2023-01-13T13:52:50.583Z,37.11
2023-01-13T13:54:54.942Z,37.07
2023-01-13T13:56:59.356Z,37.01
2023-01-13T13:59:03.700Z,36.99
2023-01-13T14:01:08.355Z,37
2023-01-13T14:03:12.767Z,37.01
2023-01-13T14:05:17.148Z,36.96
2023-01-13T14:07:21.616Z,36.93
2023-01-13T14:09:25.994Z,36.85
2023-01-13T14:11:30.346Z,36.87
2023-01-13T14:13:34.733Z,36.86
2023-01-13T14:15:39.270Z,36.85
2023-01-13T14:17:43.641Z,36.86
2023-01-13T14:19:47.985Z,36.86
2023-01-13T14:21:52.319Z,37.07
2023-01-13T14:23:56.696Z,37.38
2023-01-13T14:26:01.015Z,37.44
2023-01-13T14:28:05.410Z,37.44
2023-01-13T14:30:09.976Z,37.33
2023-01-13T14:32:14.299Z,37.51
2023-01-13T14:34:34.806Z,37.62
2023-01-13T14:36:39.105Z,37.73
2023-01-13T14:38:43.601Z,37.67
2023-01-13T14:40:47.969Z,37.76
2023-01-13T14:42:52.385Z,37.68
2023-01-13T14:44:58.357Z,37.71
2023-01-13T14:47:02.698Z,37.78
2023-01-13T14:49:07.049Z,37.68
2023-01-13T14:51:11.524Z,37.78
2023-01-13T14:53:15.916Z,37.81
2023-01-13T14:55:20.329Z,37.84
2023-01-13T14:57:24.730Z,37.8
2023-01-13T14:59:29.087Z,37.76
2023-01-13T15:01:33.956Z,37.82
2023-01-13T15:03:44.452Z,37.82
2023-01-13T15:05:48.829Z,37.8
2023-01-13T15:07:53.174Z,37.77
2023-01-13T15:09:57.564Z,37.8
2023-01-13T15:12:02.007Z,37.79
2023-01-13T15:14:06.457Z,37.86
2023-01-13T15:16:10.923Z,37.95
2023-01-13T15:18:15.359Z,37.89
2023-01-13T15:20:19.698Z,37.83
2023-01-13T15:22:24.057Z,37.86
2023-01-13T15:24:28.382Z,37.78
2023-01-13T15:26:32.805Z,37.88
2023-01-13T15:28:37.165Z,37.79
2023-01-13T15:30:41.483Z,37.76
2023-01-13T15:32:45.851Z,37.76
2023-01-13T15:34:50.269Z,37.73
2023-01-13T15:36:54.680Z,37.69
2023-01-13T15:38:59.107Z,37.67
2023-01-13T15:41:03.469Z,37.67
2023-01-13T15:43:07.941Z,37.6
2023-01-13T15:45:12.312Z,37.6
2023-01-13T15:47:16.879Z,37.55
2023-01-13T15:49:21.258Z,37.57
2023-01-13T15:51:25.683Z,37.57
2023-01-13T15:53:30.130Z,37.47
2023-01-13T15:55:34.519Z,37.42
2023-01-13T15:57:38.932Z,37.37
2023-01-13T15:59:43.309Z,37.31
2023-01-13T16:01:47.894Z,37.29
2023-01-13T16:03:52.417Z,37.22
2023-01-13T16:05:56.778Z,37.24
2023-01-13T16:08:01.151Z,37.19
2023-01-13T16:10:05.520Z,37.19
2023-01-13T16:12:10.068Z,37.17
2023-01-13T16:14:14.433Z,37.16
2023-01-13T16:16:19.067Z,37.15
2023-01-13T16:18:23.510Z,37.2
2023-01-13T16:20:27.906Z,37.21
2023-01-13T16:22:32.337Z,37.19
2023-01-13T16:24:36.733Z,37.16
2023-01-13T16:26:41.122Z,37.18
2023-01-13T16:28:45.650Z,37.64
2023-01-13T16:30:50.081Z,38
2023-01-13T16:32:54.428Z,38.82
2023-01-13T16:35:00.865Z,38.79
2023-01-13T16:37:05.238Z,39.52
2023-01-13T16:39:09.595Z,39.36
2023-01-13T16:41:13.960Z,39.63
2023-01-13T16:43:18.348Z,39.29
2023-01-13T16:45:22.757Z,39.4
2023-01-13T16:47:27.129Z,39.4
2023-01-13T16:49:31.479Z,39.33
2023-01-13T16:51:35.899Z,38.89
2023-01-13T16:53:40.248Z,39.18
2023-01-13T16:55:44.625Z,38.9
2023-01-13T16:57:49.008Z,39.57
2023-01-13T16:59:53.479Z,39.49
2023-01-13T17:01:58.122Z,39.69
2023-01-13T17:04:02.508Z,39.74
2023-01-13T17:06:06.917Z,39.42
2023-01-13T17:08:11.287Z,39.13
2023-01-13T17:10:15.578Z,39.13
2023-01-13T17:12:19.853Z,39.09
2023-01-13T17:14:24.262Z,38.8
2023-01-13T17:16:28.806Z,38.78
2023-01-13T17:18:33.153Z,38.63
2023-01-13T17:20:37.506Z,38.6
2023-01-13T17:22:45.593Z,38.52
2023-01-13T17:24:50.864Z,38.44
2023-01-13T17:26:55.233Z,38.48
2023-01-13T17:28:59.657Z,38.53
2023-01-13T17:31:04.102Z,38.42
2023-01-13T17:33:08.557Z,38.46
2023-01-13T17:35:12.928Z,38.32
2023-01-13T17:37:17.427Z,38.42
2023-01-13T17:39:21.937Z,38.41
2023-01-13T17:41:26.396Z,38.33
2023-01-13T17:43:31.005Z,38.21
2023-01-13T17:45:35.598Z,38.23
2023-01-13T17:47:40.021Z,38.18
2023-01-13T17:49:44.505Z,38.22
2023-01-13T17:51:49.068Z,38.21
2023-01-13T17:53:53.424Z,38.16
2023-01-13T17:55:57.971Z,38.17
2023-01-13T17:58:02.590Z,38.14
2023-01-13T18:00:06.977Z,38.1
2023-01-13T18:02:11.986Z,38.07
2023-01-13T18:04:16.450Z,38.07
2023-01-13T18:06:20.951Z,37.91
2023-01-13T18:08:25.340Z,38.14
2023-01-13T18:10:29.749Z,38.36
2023-01-13T18:12:34.171Z,38.72
2023-01-13T18:14:38.549Z,38.51
2023-01-13T18:16:43.224Z,38.64
2023-01-13T18:18:48.358Z,38.91
2023-01-13T18:20:53.130Z,38.88
2023-01-13T18:22:57.516Z,38.33
2023-01-13T18:25:01.900Z,38.43
2023-01-13T18:27:06.347Z,38.16
2023-01-13T18:29:10.870Z,38.22
2023-01-13T18:31:15.423Z,38.55
2023-01-13T18:33:19.831Z,38.75
2023-01-13T18:35:24.182Z,38.63
2023-01-13T18:37:28.657Z,38.8
2023-01-13T18:39:33.086Z,38.82
2023-01-13T18:41:37.484Z,38.85
2023-01-13T18:43:41.930Z,38.85
2023-01-13T18:45:46.315Z,38.88
2023-01-13T18:47:50.762Z,38.92
2023-01-13T18:49:55.129Z,39.01
2023-01-13T18:51:59.498Z,38.95
2023-01-13T18:54:03.865Z,39.02
2023-01-13T18:56:08.277Z,39.07
2023-01-13T18:58:12.655Z,39.15
2023-01-13T19:00:17.314Z,39.26
2023-01-13T19:02:22.232Z,39.1
2023-01-13T19:04:26.613Z,39.41
2023-01-13T19:06:33.866Z,39.26
2023-01-13T19:08:38.284Z,39.19
2023-01-13T19:10:42.697Z,39.32
2023-01-13T19:12:47.040Z,39.31
2023-01-13T19:14:51.393Z,39.2
2023-01-13T19:16:55.758Z,39.21
2023-01-13T19:19:00.141Z,39.17
2023-01-13T19:21:04.496Z,39.22
2023-01-13T19:23:08.891Z,39.13
2023-01-13T19:25:13.325Z,38.96
2023-01-13T19:27:17.686Z,39.39
2023-01-13T19:29:22.640Z,39.45
2023-01-13T19:31:27.262Z,39.48
2023-01-13T19:33:31.667Z,39.6
2023-01-13T19:35:36.112Z,39.69
2023-01-13T19:37:40.486Z,39.73
2023-01-13T19:39:44.815Z,38.39
2023-01-13T19:41:49.202Z,38.71
2023-01-13T19:43:53.708Z,38.85
2023-01-13T19:45:58.177Z,38.79
2023-01-13T19:48:02.624Z,39.44
2023-01-13T19:50:07.003Z,39.16
2023-01-13T19:52:11.683Z,39.17
2023-01-13T19:54:16.007Z,39.22
2023-01-13T19:56:20.464Z,39.04
2023-01-13T19:58:24.846Z,39.24
2023-01-13T20:00:29.190Z,39.3
2023-01-13T20:02:33.855Z,39.44
2023-01-13T20:04:38.308Z,39.52
2023-01-13T20:06:42.745Z,39.74
2023-01-13T20:08:47.357Z,38.8
2023-01-13T20:10:51.764Z,38.13
2023-01-13T20:12:56.129Z,38.19
2023-01-13T20:15:00.534Z,38.08
2023-01-13T20:17:04.871Z,38.27
2023-01-13T20:19:09.219Z,38.28
2023-01-13T20:21:13.577Z,39.02
2023-01-13T20:23:17.918Z,37.26
2023-01-13T20:25:22.495Z,35.22
2023-01-13T20:27:26.891Z,34.27
2023-01-13T20:29:31.250Z,35.39
2023-01-13T20:31:35.868Z,34.69
2023-01-13T20:33:40.250Z,34.33
2023-01-13T20:35:44.617Z,35.05
2023-01-13T20:37:48.969Z,35.44
2023-01-13T20:39:53.329Z,34.52
2023-01-13T20:41:57.736Z,34.52
2023-01-13T20:44:02.128Z,34.29
2023-01-13T20:46:06.514Z,33.95
2023-01-13T20:48:10.899Z,32.28
2023-01-13T20:50:15.291Z,33.75
2023-01-13T20:52:19.691Z,33.8
2023-01-13T20:54:24.160Z,34.16
2023-01-13T20:56:28.645Z,34.49
2023-01-13T20:58:33.007Z,32.93
2023-01-13T21:00:37.532Z,35.16
2023-01-13T21:02:41.945Z,34.19
2023-01-13T21:04:46.500Z,35.11
2023-01-13T21:06:50.925Z,35.27
2023-01-13T21:08:55.301Z,34.87
2023-01-13T21:10:59.797Z,32.38
2023-01-13T21:13:04.215Z,34.17
2023-01-13T21:15:08.592Z,34.6
2023-01-13T21:17:13.040Z,34.29
2023-01-13T21:19:18.573Z,32.78
2023-01-13T21:21:22.929Z,32.96
2023-01-13T21:23:27.323Z,33.56
2023-01-13T21:25:32.706Z,32.23
2023-01-13T21:27:37.883Z,33.45
2023-01-13T21:29:42.307Z,32.82
2023-01-13T21:31:46.944Z,33.39
2023-01-13T21:33:51.333Z,31.58
2023-01-13T21:35:55.741Z,30.6
2023-01-13T21:38:00.191Z,31.71
2023-01-13T21:40:04.615Z,30.91
2023-01-13T21:42:09.009Z,29.59
2023-01-13T21:44:13.371Z,29.35
2023-01-13T21:46:17.916Z,30.71
2023-01-13T21:48:22.306Z,30.94
2023-01-13T21:50:26.654Z,30.76
2023-01-13T21:52:31.041Z,30.65
2023-01-13T21:54:35.456Z,31.05
2023-01-13T21:56:39.823Z,31.04
2023-01-13T21:58:44.159Z,30.35
2023-01-13T22:00:51.631Z,30.44
2023-01-13T22:02:56.128Z,30.21
2023-01-13T22:05:00.598Z,29.94
2023-01-13T22:07:04.997Z,29.67
2023-01-13T22:09:09.344Z,29.69
2023-01-13T22:11:13.715Z,29.85
2023-01-13T22:13:18.074Z,29.59
2023-01-13T22:15:22.430Z,29.65
2023-01-13T22:17:26.926Z,29.59
2023-01-13T22:19:31.337Z,27.91
2023-01-13T22:21:36.532Z,30.38
2023-01-13T22:23:40.905Z,30.13
2023-01-13T22:25:45.324Z,29.26
2023-01-13T22:27:49.672Z,29.85
2023-01-13T22:29:54.049Z,29.55
2023-01-13T22:31:58.643Z,29.68
2023-01-13T22:34:03.013Z,29.5
2023-01-13T22:36:07.384Z,29.58
2023-01-13T22:38:11.754Z,29.53
2023-01-13T22:40:16.098Z,29.65
2023-01-13T22:42:20.473Z,29.25
2023-01-13T22:44:24.825Z,29.25
2023-01-13T22:46:29.185Z,29.02
2023-01-13T22:48:33.540Z,29.03
2023-01-13T22:50:37.928Z,28.95
2023-01-13T22:52:42.366Z,29.04
2023-01-13T22:54:46.752Z,28.78
2023-01-13T22:56:51.097Z,29.09
2023-01-13T22:58:55.481Z,28.96
2023-01-13T23:00:59.983Z,28.69
2023-01-13T23:03:04.384Z,29.18
2023-01-13T23:05:08.715Z,28.96
2023-01-13T23:07:13.163Z,28.57
2023-01-13T23:09:17.519Z,29.4
2023-01-13T23:11:21.895Z,29.21
2023-01-13T23:13:26.321Z,30.67
2023-01-13T23:15:30.671Z,30.62
2023-01-13T23:17:35.069Z,30.97
2023-01-13T23:19:39.479Z,31.24
2023-01-13T23:21:43.838Z,31.28
2023-01-13T23:23:48.225Z,31.54
2023-01-13T23:25:52.628Z,31.6
2023-01-13T23:27:56.985Z,31.54
2023-01-13T23:30:01.450Z,31.56
2023-01-13T23:32:05.845Z,31.79
2023-01-13T23:34:10.291Z,31.96
2023-01-13T23:36:14.702Z,31.94
2023-01-13T23:38:19.037Z,32.1
2023-01-13T23:40:23.497Z,32.19
2023-01-13T23:42:27.872Z,32.32
2023-01-13T23:44:32.473Z,32.33
2023-01-13T23:46:36.880Z,32.5
2023-01-13T23:48:41.279Z,32.53
2023-01-13T23:50:45.679Z,32.64
2023-01-13T23:52:50.053Z,32.83
2023-01-13T23:54:54.476Z,32.89
2023-01-13T23:56:58.872Z,32.96
2023-01-13T23:59:03.255Z,33.2
